Time;durP1;ratioP1;P1;durP2;ratioP2;P2;SDS_P1;SDS_P2;PMS_P1;PMS_P2;Temp;Humidity;BMP_temperature;BMP_pressure;BME280_temperature;BME280_humidity;BME280_pressure;Samples;Min_cycle;Max_cycle;Signal;HPM_P1;HPM_P2
2023/07/23 00:02:03;;;;;;;4.95;3.42;;;;;;;17.63;61.79;96210.72;5115118;27;20050;-73
2023/07/23 00:04:29;;;;;;;6.30;3.72;;;;;;;17.61;61.35;96216.59;5107505;27;20096;-72
2023/07/23 00:06:57;;;;;;;6.30;3.80;;;;;;;17.58;61.67;96213.75;5097192;28;20071;-71
2023/07/23 00:09:24;;;;;;;5.72;3.80;;;;;;;17.52;62.14;96216.03;5111460;27;20043;-72
2023/07/23 00:11:50;;;;;;;5.07;3.65;;;;;;;17.50;62.48;96212.06;5092137;28;20050;-72
2023/07/23 00:14:17;;;;;;;6.35;3.67;;;;;;;17.50;63.05;96214.81;5090672;28;20042;-72
2023/07/23 00:16:44;;;;;;;7.03;4.20;;;;;;;17.48;62.73;96221.47;5090897;28;20048;-72
2023/07/23 00:19:15;;;;;;;6.22;4.07;;;;;;;17.46;62.83;96217.50;5090252;28;20043;-72
2023/07/23 00:21:42;;;;;;;5.70;3.67;;;;;;;17.46;63.98;96212.78;5097728;27;20535;-72
2023/07/23 00:24:09;;;;;;;6.35;3.58;;;;;;;17.43;64.18;96208.00;5089915;28;20405;-72
2023/07/23 00:26:36;;;;;;;4.53;3.28;;;;;;;17.43;64.16;96202.50;5090395;28;20040;-72
2023/07/23 00:29:02;;;;;;;4.38;2.83;;;;;;;17.39;63.50;96209.91;5093172;27;20046;-72
2023/07/23 00:31:29;;;;;;;5.40;2.97;;;;;;;17.38;63.36;96210.25;5097846;28;20048;-72
2023/07/23 00:33:56;;;;;;;6.07;3.60;;;;;;;17.37;63.65;96214.97;5095517;28;20044;-72
2023/07/23 00:36:22;;;;;;;5.32;3.05;;;;;;;17.36;63.90;96213.38;5090036;28;20495;-71
2023/07/23 00:38:50;;;;;;;6.75;3.13;;;;;;;17.34;64.80;96214.94;5110352;27;20055;-72
2023/07/23 00:41:18;;;;;;;6.53;3.38;;;;;;;17.34;65.29;96210.22;5105693;27;20415;-71
2023/07/23 00:43:44;;;;;;;5.00;3.08;;;;;;;17.32;65.45;96207.00;5102230;27;20052;-72
2023/07/23 00:46:11;;;;;;;4.97;3.38;;;;;;;17.31;65.88;96204.63;5110150;27;20410;-72
2023/07/23 00:48:38;;;;;;;5.28;3.25;;;;;;;17.32;65.78;96198.75;5092334;28;20040;-72
2023/07/23 00:51:04;;;;;;;4.07;2.67;;;;;;;17.32;65.55;96196.00;5089696;28;20044;-72
2023/07/23 00:53:31;;;;;;;5.00;3.03;;;;;;;17.27;65.33;96199.06;5090141;28;20502;-71
2023/07/23 00:55:59;;;;;;;5.60;3.45;;;;;;;17.25;65.35;96190.38;5092274;28;20054;-72
2023/07/23 00:58:27;;;;;;;5.07;3.17;;;;;;;17.25;65.33;96190.38;5090216;28;20523;-72
2023/07/23 01:00:54;;;;;;;5.38;2.97;;;;;;;17.16;65.47;96189.81;5101552;27;20075;-72
2023/07/23 01:03:21;;;;;;;4.28;3.20;;;;;;;17.17;65.42;96188.63;5108950;27;20135;-73
2023/07/23 01:05:50;;;;;;;5.55;3.13;;;;;;;17.17;66.18;96188.63;5090864;28;20534;-72
2023/07/23 01:08:17;;;;;;;6.90;3.50;;;;;;;17.16;66.79;96189.81;5096204;27;20047;-73
2023/07/23 01:10:44;;;;;;;5.57;3.50;;;;;;;17.15;66.97;96182.72;5107556;27;20126;-72
2023/07/23 01:13:10;;;;;;;4.85;3.05;;;;;;;17.15;66.56;96179.97;5096066;27;20047;-73
2023/07/23 01:15:38;;;;;;;5.47;2.97;;;;;;;17.15;66.77;96177.22;5102652;28;20047;-72
2023/07/23 01:18:05;;;;;;;5.70;3.30;;;;;;;17.14;66.81;96178.38;5104952;27;20040;-72
2023/07/23 01:20:31;;;;;;;5.25;3.08;;;;;;;17.10;66.47;96178.31;5097772;28;20070;-72
2023/07/23 01:22:59;;;;;;;4.45;2.90;;;;;;;17.08;66.99;96171.59;5103153;27;20051;-72
2023/07/23 01:25:26;;;;;;;4.82;3.10;;;;;;;17.08;67.34;96166.09;5112690;27;20043;-72
2023/07/23 01:27:52;;;;;;;6.53;3.03;;;;;;;17.06;67.28;96174.69;5113375;27;20047;-72
2023/07/23 01:30:19;;;;;;;6.50;3.47;;;;;;;17.03;67.46;96172.69;5100821;27;20111;-72
2023/07/23 01:32:47;;;;;;;6.32;3.15;;;;;;;16.94;67.79;96175.66;5111567;28;20040;-72
2023/07/23 01:35:15;;;;;;;5.13;3.47;;;;;;;16.93;67.58;96178.78;5108683;27;20569;-72
2023/07/23 01:37:43;;;;;;;4.70;2.97;;;;;;;16.90;67.20;96174.78;5110385;27;20487;-72
2023/07/23 01:40:12;;;;;;;6.85;3.35;;;;;;;16.92;67.66;96161.47;5112173;27;20525;-72
2023/07/23 01:42:38;;;;;;;4.90;3.05;;;;;;;16.91;67.54;96165.38;5105855;28;20477;-72
2023/07/23 01:45:06;;;;;;;5.30;3.40;;;;;;;16.84;66.82;96164.44;5104103;27;20040;-72
2023/07/23 01:47:32;;;;;;;4.88;3.25;;;;;;;16.75;66.87;96167.41;5108419;27;20048;-72
2023/07/23 01:49:59;;;;;;;5.35;3.30;;;;;;;16.74;66.60;96165.03;5109535;27;20499;-72
2023/07/23 01:52:26;;;;;;;4.35;3.10;;;;;;;16.73;66.68;96169.72;5101957;27;20048;-72
2023/07/23 01:54:53;;;;;;;3.92;2.70;;;;;;;16.75;66.64;96159.16;5103754;28;20503;-73
2023/07/23 01:57:20;;;;;;;6.75;3.20;;;;;;;16.71;66.94;96163.81;5107564;27;20690;-72
2023/07/23 01:59:47;;;;;;;5.22;3.10;;;;;;;16.69;67.13;96166.06;5095292;28;20044;-72
2023/07/23 02:02:14;;;;;;;5.65;2.97;;;;;;;16.68;67.48;96164.50;5107863;27;20054;-72
2023/07/23 02:04:40;;;;;;;5.75;3.47;;;;;;;16.63;67.26;96164.78;5110436;27;20042;-72
2023/07/23 02:07:07;;;;;;;5.65;3.40;;;;;;;16.62;67.27;96163.97;5097516;27;20050;-73
2023/07/23 02:09:33;;;;;;;6.97;3.25;;;;;;;16.56;67.28;96156.38;5108644;27;20047;-72
2023/07/23 02:12:00;;;;;;;4.68;3.10;;;;;;;16.59;67.67;96159.19;5113512;27;20046;-72
2023/07/23 02:14:29;;;;;;;4.47;2.90;;;;;;;16.63;67.89;96153.78;5113240;27;20510;-72
2023/07/23 02:16:55;;;;;;;5.90;3.78;;;;;;;16.56;68.04;96148.94;5102331;27;20037;-73
2023/07/23 02:19:22;;;;;;;5.05;3.20;;;;;;;16.62;68.07;96149.44;5107488;27;20411;-73
2023/07/23 02:21:49;;;;;;;5.25;3.55;;;;;;;16.64;68.01;96153.41;5106156;27;20040;-73
2023/07/23 02:24:15;;;;;;;5.32;3.10;;;;;;;16.59;68.21;96150.16;5112703;27;20650;-72
2023/07/23 02:26:42;;;;;;;5.05;3.17;;;;;;;16.50;68.25;96155.88;5109287;27;20043;-72
2023/07/23 02:29:08;;;;;;;8.40;3.17;;;;;;;16.47;68.50;96156.59;5099740;28;20419;-73
2023/07/23 02:31:36;;;;;;;5.80;3.40;;;;;;;16.51;68.39;96151.19;5092630;28;20040;-73
2023/07/23 02:34:02;;;;;;;7.70;3.47;;;;;;;16.41;69.12;96153.34;5100957;28;20044;-72
2023/07/23 02:36:29;;;;;;;6.05;3.13;;;;;;;16.51;69.39;96151.19;5092950;28;20042;-72
2023/07/23 02:38:55;;;;;;;5.40;3.33;;;;;;;16.57;69.01;96149.72;5109850;27;20035;-72
2023/07/23 02:41:23;;;;;;;5.20;3.30;;;;;;;16.59;68.90;96147.41;5092487;28;20075;-72
2023/07/23 02:43:49;;;;;;;4.50;3.40;;;;;;;16.54;68.90;96151.22;5109303;28;20067;-72
2023/07/23 02:46:16;;;;;;;6.65;3.55;;;;;;;16.54;68.82;96156.72;5099352;28;20488;-72
2023/07/23 02:48:43;;;;;;;4.43;3.25;;;;;;;16.54;68.88;96153.19;5094829;28;20040;-72
2023/07/23 02:51:10;;;;;;;4.88;3.25;;;;;;;16.52;68.73;96147.28;5091420;28;20102;-72
2023/07/23 02:53:36;;;;;;;4.45;3.03;;;;;;;16.55;68.67;96152.03;5095141;28;20040;-71
2023/07/23 02:56:03;;;;;;;4.97;3.13;;;;;;;16.48;69.07;96158.19;5100607;27;20043;-72
2023/07/23 02:58:30;;;;;;;5.28;3.10;;;;;;;16.43;69.13;96162.00;5097300;28;20044;-72
2023/07/23 03:00:56;;;;;;;5.20;3.13;;;;;;;16.56;69.16;96159.13;5101662;28;20543;-72
2023/07/23 03:03:23;;;;;;;4.35;2.92;;;;;;;16.62;69.07;96158.47;5091999;28;20046;-72
2023/07/23 03:05:51;;;;;;;4.60;2.70;;;;;;;16.64;68.66;96160.88;5095274;28;20513;-72
2023/07/23 03:08:18;;;;;;;4.85;2.83;;;;;;;16.71;69.13;96166.56;5099261;27;20052;-71
2023/07/23 03:10:44;;;;;;;4.30;3.13;;;;;;;16.72;68.91;96161.84;5108948;27;20046;-72
2023/07/23 03:13:11;;;;;;;6.45;3.38;;;;;;;16.64;68.54;96166.38;5107652;27;20055;-72
2023/07/23 03:15:37;;;;;;;7.40;3.40;;;;;;;16.66;68.65;96161.31;5091813;28;20052;-72
2023/07/23 03:18:04;;;;;;;4.47;2.88;;;;;;;16.65;68.77;96155.03;5093819;28;20040;-72
2023/07/23 03:20:30;;;;;;;4.35;2.88;;;;;;;16.70;69.24;96164.91;5091728;28;20048;-72
2023/07/23 03:22:58;;;;;;;4.53;3.00;;;;;;;16.69;69.13;96164.13;5091811;28;20422;-72
2023/07/23 03:25:25;;;;;;;5.32;3.00;;;;;;;16.74;69.18;96165.81;5101282;28;20131;-72
2023/07/23 03:27:51;;;;;;;4.82;2.85;;;;;;;16.76;69.36;96158.00;5103435;27;20402;-71
2023/07/23 03:30:18;;;;;;;7.75;3.00;;;;;;;16.62;69.21;96152.19;5110435;27;20043;-72
2023/07/23 03:32:44;;;;;;;6.50;3.15;;;;;;;16.68;68.82;96159.00;5097893;27;20052;-72
2023/07/23 03:35:11;;;;;;;7.55;3.30;;;;;;;16.69;68.90;96152.31;5107829;27;20051;-71
2023/07/23 03:37:37;;;;;;;4.40;2.97;;;;;;;16.71;69.19;96161.06;5111908;27;20043;-72
2023/07/23 03:40:07;;;;;;;5.53;3.10;;;;;;;16.66;69.26;96153.06;5091349;28;20040;-72
2023/07/23 03:42:33;;;;;;;5.65;3.20;;;;;;;16.59;69.06;96152.91;5094108;28;20055;-72
2023/07/23 03:45:00;;;;;;;6.32;3.35;;;;;;;16.62;69.38;96152.97;5091182;28;20055;-71
2023/07/23 03:47:26;;;;;;;5.30;3.00;;;;;;;16.56;69.57;96156.38;5091172;28;20730;-72
2023/07/23 03:49:53;;;;;;;3.95;2.78;;;;;;;16.62;69.28;96146.69;5099854;28;20047;-72
2023/07/23 03:52:20;;;;;;;6.43;3.42;;;;;;;16.48;69.61;96143.66;5105738;28;20047;-72
2023/07/23 03:54:46;;;;;;;6.28;3.42;;;;;;;16.28;70.30;96148.31;5098694;27;20059;-72
2023/07/23 03:57:15;;;;;;;5.13;3.30;;;;;;;16.35;70.10;96149.28;5103626;27;20066;-72
2023/07/23 03:59:43;;;;;;;5.57;3.17;;;;;;;16.15;70.87;96150.41;5103290;28;20043;-72
2023/07/23 04:02:10;;;;;;;7.50;3.50;;;;;;;15.86;72.27;96143.47;5110849;27;20513;-72
2023/07/23 04:04:37;;;;;;;6.70;3.03;;;;;;;15.98;72.07;96145.31;5100052;28;20613;-72
2023/07/23 04:07:04;;;;;;;4.20;2.75;;;;;;;16.17;71.56;96142.59;5113389;27;20040;-72
2023/07/23 04:09:31;;;;;;;5.40;3.15;;;;;;;16.27;71.36;96144.78;5105914;27;20042;-71
2023/07/23 04:11:58;;;;;;;6.20;3.40;;;;;;;16.17;71.43;96142.59;5101554;28;20051;-72
2023/07/23 04:14:26;;;;;;;5.28;3.50;;;;;;;16.09;71.60;96151.84;5101700;28;20044;-72
2023/07/23 04:16:54;;;;;;;5.85;3.50;;;;;;;15.85;72.52;96142.66;5096915;28;20040;-72
2023/07/23 04:19:21;;;;;;;6.43;3.55;;;;;;;15.79;72.94;96144.09;5103936;27;20126;-72
2023/07/23 04:21:47;;;;;;;7.85;3.28;;;;;;;15.80;72.85;96142.16;5095025;28;20067;-72
2023/07/23 04:24:14;;;;;;;4.88;3.15;;;;;;;15.80;73.27;96148.44;5101049;28;20058;-72
2023/07/23 04:26:40;;;;;;;5.07;3.22;;;;;;;15.94;72.70;96144.44;5096678;28;20048;-72
2023/07/23 04:29:08;;;;;;;7.22;3.75;;;;;;;15.87;72.90;96145.88;5106703;27;20413;-73
2023/07/23 04:31:37;;;;;;;5.30;3.17;;;;;;;15.89;73.01;96149.06;5096621;28;20059;-72
2023/07/23 04:34:03;;;;;;;4.20;2.88;;;;;;;15.99;72.96;96144.16;5090227;28;20510;-72
2023/07/23 04:36:30;;;;;;;7.78;3.45;;;;;;;15.99;73.28;96147.72;5096453;28;20074;-72
2023/07/23 04:38:56;;;;;;;6.97;3.30;;;;;;;16.06;72.38;96147.06;5111328;27;20400;-73
2023/07/23 04:41:23;;;;;;;4.63;2.83;;;;;;;16.11;72.42;96155.03;5102205;27;20047;-72
2023/07/23 04:43:49;;;;;;;4.50;2.88;;;;;;;16.11;72.23;96155.03;5110962;27;20394;-72
2023/07/23 04:46:16;;;;;;;6.53;3.30;;;;;;;16.28;72.65;96148.31;5098587;27;20072;-73
2023/07/23 04:48:43;;;;;;;4.45;2.47;;;;;;;16.33;72.11;96148.84;5094866;28;20071;-72
2023/07/23 04:51:10;;;;;;;4.97;2.92;;;;;;;16.40;72.02;96157.25;5090545;28;20392;-72
2023/07/23 04:53:37;;;;;;;5.53;3.40;;;;;;;16.34;71.60;96153.19;5090392;28;20043;-72
2023/07/23 04:56:05;;;;;;;4.53;2.97;;;;;;;16.41;71.63;96150.59;5104926;27;20078;-72
2023/07/23 04:58:33;;;;;;;6.07;3.30;;;;;;;16.33;72.00;96148.84;5102690;27;20046;-71
2023/07/23 05:01:05;;;;;;;6.72;3.13;;;;;;;16.34;72.01;96153.19;5109863;27;20048;-72
2023/07/23 05:03:32;;;;;;;7.43;3.63;;;;;;;16.27;72.32;96158.53;5102287;28;20398;-72
2023/07/23 05:06:03;;;;;;;5.05;2.95;;;;;;;16.17;72.85;96153.59;5101262;28;20130;-72
2023/07/23 05:08:29;;;;;;;4.25;2.95;;;;;;;16.40;72.39;96154.50;5103261;27;20059;-72
2023/07/23 05:10:59;;;;;;;4.50;3.00;;;;;;;16.54;72.26;96158.69;5093121;28;20047;-72
2023/07/23 05:13:26;;;;;;;6.10;3.08;;;;;;;16.69;72.03;96152.31;5109501;27;20043;-72
2023/07/23 05:15:52;;;;;;;6.63;3.40;;;;;;;16.69;71.67;96158.63;5102061;28;20431;-72
2023/07/23 05:18:19;;;;;;;5.22;3.22;;;;;;;16.73;71.54;96158.72;5101486;27;20043;-72
2023/07/23 05:20:46;;;;;;;6.10;2.83;;;;;;;16.85;71.74;96158.56;5111990;27;20044;-72
2023/07/23 05:23:14;;;;;;;7.22;3.30;;;;;;;16.82;71.08;96162.06;5102899;27;20039;-72
2023/07/23 05:25:40;;;;;;;4.93;3.15;;;;;;;16.86;70.96;96159.34;5110562;27;20039;-72
2023/07/23 05:28:07;;;;;;;5.20;2.78;;;;;;;16.98;70.87;96163.94;5103590;27;20047;-72
2023/07/23 05:30:34;;;;;;;5.65;3.30;;;;;;;17.08;70.83;96161.38;5093768;28;20051;-72
2023/07/23 05:33:00;;;;;;;5.53;3.28;;;;;;;17.20;70.65;96157.66;5093621;28;20041;-72
2023/07/23 05:35:27;;;;;;;7.47;3.20;;;;;;;17.21;70.63;96167.50;5106078;27;20037;-72
2023/07/23 05:37:53;;;;;;;5.10;3.35;;;;;;;17.26;70.21;96163.66;5093727;28;20506;-72
2023/07/23 05:40:21;;;;;;;5.20;3.15;;;;;;;17.10;70.76;96172.00;5093020;28;20044;-73
2023/07/23 05:42:47;;;;;;;6.57;3.35;;;;;;;17.29;70.57;96171.97;5094635;28;20044;-72
2023/07/23 05:45:14;;;;;;;5.38;3.33;;;;;;;17.23;70.25;96173.44;5101151;28;20494;-73
2023/07/23 05:47:40;;;;;;;6.03;3.20;;;;;;;17.26;70.19;96175.44;5093825;28;20044;-72
2023/07/23 05:50:08;;;;;;;4.95;3.00;;;;;;;17.45;69.74;96172.66;5093782;27;20493;-73
2023/07/23 05:52:35;;;;;;;5.50;3.20;;;;;;;17.52;70.12;96171.19;5101236;27;20048;-72
2023/07/23 05:55:02;;;;;;;4.72;2.95;;;;;;;17.56;68.95;96178.34;5099338;27;20074;-73
2023/07/23 05:57:30;;;;;;;4.78;2.92;;;;;;;17.68;68.87;96174.59;5099274;27;20044;-72
2023/07/23 05:59:57;;;;;;;6.00;2.80;;;;;;;17.79;68.42;96175.59;5096918;28;20040;-73
2023/07/23 06:02:23;;;;;;;6.43;3.10;;;;;;;17.89;68.26;96172.22;5102629;28;20051;-72
2023/07/23 06:04:50;;;;;;;8.20;3.10;;;;;;;18.06;67.33;96176.41;5110340;27;20422;-71
2023/07/23 06:07:16;;;;;;;4.93;3.05;;;;;;;18.20;67.09;96184.09;5100858;27;20148;-71
2023/07/23 06:09:43;;;;;;;5.20;3.13;;;;;;;18.35;66.93;96179.59;5102422;27;20490;-72
2023/07/23 06:12:09;;;;;;;5.10;2.83;;;;;;;18.43;66.59;96178.53;5098435;28;20052;-73
2023/07/23 06:14:37;;;;;;;4.35;3.13;;;;;;;18.52;66.51;96182.59;5089989;28;20058;-73
2023/07/23 06:17:04;;;;;;;5.47;3.25;;;;;;;18.68;66.24;96181.63;5098515;27;20788;-74
2023/07/23 06:19:31;;;;;;;6.45;3.22;;;;;;;18.80;66.32;96184.19;5097789;27;20048;-73
2023/07/23 06:21:57;;;;;;;5.38;3.20;;;;;;;18.95;65.78;96179.59;5101960;28;20068;-73
2023/07/23 06:24:24;;;;;;;7.72;2.85;;;;;;;19.15;65.49;96183.78;5100155;27;20048;-72
2023/07/23 06:26:50;;;;;;;4.93;2.97;;;;;;;19.27;65.50;96174.47;5090090;28;20043;-72
2023/07/23 06:29:17;;;;;;;6.78;3.20;;;;;;;19.40;64.55;96178.53;5100793;27;20055;-72
2023/07/23 06:31:45;;;;;;;4.65;3.05;;;;;;;19.66;64.48;96176.81;5095382;27;20418;-73
2023/07/23 06:34:11;;;;;;;4.95;2.95;;;;;;;19.70;63.28;96180.41;5099059;28;20047;-72
2023/07/23 06:36:38;;;;;;;4.85;2.95;;;;;;;19.90;62.52;96179.00;5097231;28;20510;-72
2023/07/23 06:39:04;;;;;;;5.03;3.00;;;;;;;20.02;63.04;96181.47;5109408;27;20062;-72
2023/07/23 06:41:31;;;;;;;4.90;2.53;;;;;;;20.21;62.47;96176.88;5107586;28;20051;-72
2023/07/23 06:43:57;;;;;;;3.85;2.63;;;;;;;20.35;62.68;96176.94;5090383;28;20040;-72
2023/07/23 06:46:24;;;;;;;5.22;2.80;;;;;;;20.44;61.66;96180.16;5105095;27;20045;-72
2023/07/23 06:48:52;;;;;;;4.90;2.50;;;;;;;20.55;59.58;96185.78;5114144;27;20048;-72
2023/07/23 06:51:18;;;;;;;4.40;2.72;;;;;;;20.73;58.36;96189.44;5104912;27;20048;-72
2023/07/23 06:53:45;;;;;;;4.72;2.85;;;;;;;20.84;56.21;96175.66;5107902;27;20043;-72
2023/07/23 06:56:12;;;;;;;3.75;2.63;;;;;;;21.00;56.03;96181.66;5101439;27;20048;-72
2023/07/23 06:58:39;;;;;;;3.67;2.35;;;;;;;21.10;55.40;96178.13;5092502;27;20766;-72
2023/07/23 07:01:08;;;;;;;3.72;2.83;;;;;;;21.25;55.79;96178.97;5098096;27;20039;-72
2023/07/23 07:03:35;;;;;;;4.88;2.95;;;;;;;21.40;53.88;96188.09;5099662;27;20121;-72
2023/07/23 07:06:04;;;;;;;5.82;2.78;;;;;;;21.50;52.03;96173.50;5090445;28;20109;-75
2023/07/23 07:08:30;;;;;;;4.82;2.47;;;;;;;21.54;51.65;96168.75;5100238;27;20627;-72
2023/07/23 07:10:59;;;;;;;4.63;2.53;;;;;;;21.73;51.32;96175.13;5099956;28;20047;-73
2023/07/23 07:13:26;;;;;;;4.70;2.50;;;;;;;21.84;52.12;96171.16;5098503;27;20710;-72
2023/07/23 07:15:53;;;;;;;6.78;2.80;;;;;;;21.92;51.90;96171.94;5109784;27;20497;-72
2023/07/23 07:18:19;;;;;;;5.35;2.42;;;;;;;22.05;50.88;96170.34;5094668;28;20467;-72
2023/07/23 07:20:46;;;;;;;4.72;2.78;;;;;;;22.11;50.90;96171.56;5092640;28;20051;-73
2023/07/23 07:23:13;;;;;;;4.07;2.22;;;;;;;22.23;49.63;96180.66;5100669;27;20849;-73
2023/07/23 07:25:40;;;;;;;3.58;2.35;;;;;;;22.31;48.63;96169.16;5106807;27;20043;-72
2023/07/23 07:28:06;;;;;;;5.28;2.30;;;;;;;22.42;49.41;96166.38;5112109;27;20035;-72
2023/07/23 07:30:33;;;;;;;4.47;2.47;;;;;;;22.52;49.39;96165.56;5092120;28;20054;-73
2023/07/23 07:32:59;;;;;;;3.97;2.40;;;;;;;22.64;50.38;96167.91;5093622;28;20048;-73
2023/07/23 07:35:26;;;;;;;5.82;2.50;;;;;;;22.76;48.23;96171.44;5106365;27;20054;-73
2023/07/23 07:37:52;;;;;;;4.35;2.58;;;;;;;22.78;47.73;96166.28;5113849;27;20046;-74
2023/07/23 07:40:20;;;;;;;3.92;2.47;;;;;;;22.96;47.66;96160.66;5113878;27;20047;-73
2023/07/23 07:42:46;;;;;;;4.70;2.45;;;;;;;23.03;46.61;96160.66;5111852;27;20048;-72
2023/07/23 07:45:13;;;;;;;3.40;2.20;;;;;;;23.07;46.57;96159.41;5091488;28;20059;-72
2023/07/23 07:47:39;;;;;;;4.57;2.33;;;;;;;23.18;46.32;96157.41;5109058;27;20047;-73
2023/07/23 07:50:08;;;;;;;5.32;2.60;;;;;;;23.32;46.48;96167.63;5099939;27;20044;-73
2023/07/23 07:52:35;;;;;;;4.38;2.47;;;;;;;23.28;45.27;96152.97;5091125;28;20064;-72
2023/07/23 07:55:01;;;;;;;6.57;2.47;;;;;;;23.38;46.09;96149.34;5108676;27;20039;-72
2023/07/23 07:57:29;;;;;;;5.60;2.50;;;;;;;23.42;44.83;96154.88;5097004;28;20052;-72
2023/07/23 07:59:56;;;;;;;5.43;3.42;;;;;;;23.59;45.04;96150.38;5088082;28;20134;-72
2023/07/23 08:02:24;;;;;;;4.35;2.58;;;;;;;23.74;45.03;96145.56;5088294;27;20052;-72
2023/07/23 08:04:51;;;;;;;3.35;2.30;;;;;;;23.83;44.32;96143.09;5087816;28;20052;-72
2023/07/23 08:07:19;;;;;;;3.38;2.22;;;;;;;23.87;44.09;96144.66;5088949;28;20051;-72
2023/07/23 08:09:47;;;;;;;4.15;2.20;;;;;;;24.02;44.91;96142.56;5101735;27;20491;-74
2023/07/23 08:12:13;;;;;;;4.60;2.42;;;;;;;24.26;43.48;96151.06;5101703;27;20051;-75
2023/07/23 08:14:42;;;;;;;2.97;2.20;;;;;;;24.48;43.03;96146.88;5107460;28;20054;-74
2023/07/23 08:17:10;;;;;;;3.70;2.30;;;;;;;24.61;41.65;96142.38;5099244;28;20054;-74
2023/07/23 08:19:37;;;;;;;2.75;2.08;;;;;;;24.82;42.02;96144.13;5093776;28;20044;-74
2023/07/23 08:22:04;;;;;;;4.45;2.40;;;;;;;24.88;41.54;96147.22;5098949;27;20043;-74
2023/07/23 08:24:31;;;;;;;6.00;2.58;;;;;;;24.74;41.85;96145.41;5090167;28;20134;-73
2023/07/23 08:27:01;;;;;;;3.75;2.30;;;;;;;24.81;41.54;96147.34;5102680;27;20046;-73
2023/07/23 08:29:29;;;;;;;4.57;2.50;;;;;;;24.83;42.04;96142.13;5102485;27;20044;-76
2023/07/23 08:31:58;;;;;;;7.18;2.60;;;;;;;25.00;39.91;96138.31;5087823;28;20044;-72
2023/07/23 08:34:26;;;;;;;3.63;2.40;;;;;;;25.13;38.04;96139.38;5106547;27;20487;-72
2023/07/23 08:36:54;;;;;;;4.18;2.40;;;;;;;25.40;37.56;96138.63;5107909;27;20062;-73
2023/07/23 08:39:21;;;;;;;4.10;2.20;;;;;;;25.34;32.85;96140.31;5107042;27;20105;-73
2023/07/23 08:42:13;;;;;;;3.80;2.10;;;;;;;25.63;35.79;96137.88;5107820;27;20044;-73
2023/07/23 08:45:19;;;;;;;4.35;2.10;;;;;;;25.95;35.33;96140.19;5103857;28;20054;-73
2023/07/23 08:47:48;;;;;;;3.33;2.13;;;;;;;25.87;35.48;96131.13;5085666;28;20044;-72
2023/07/23 08:50:15;;;;;;;3.88;2.28;;;;;;;25.59;34.77;96142.72;5093609;27;20072;-72
2023/07/23 08:52:43;;;;;;;2.53;2.10;;;;;;;25.38;34.77;96138.25;5096574;28;20048;-73
2023/07/23 08:55:10;;;;;;;6.13;2.33;;;;;;;25.20;34.62;96142.06;5089726;28;20504;-73
2023/07/23 08:57:37;;;;;;;4.57;2.10;;;;;;;25.41;35.82;96134.63;5086907;28;20040;-73
2023/07/23 09:00:06;;;;;;;5.18;2.20;;;;;;;25.37;36.20;96142.22;5094733;28;20047;-74
2023/07/23 09:02:35;;;;;;;4.07;1.98;;;;;;;25.51;35.63;96128.09;5093014;28;20562;-73
2023/07/23 09:05:03;;;;;;;3.45;2.10;;;;;;;25.59;36.44;96129.56;5107650;27;20052;-74
2023/07/23 09:07:30;;;;;;;2.42;1.90;;;;;;;25.56;34.59;96130.41;5105844;27;20112;-73
2023/07/23 09:09:58;;;;;;;4.40;2.30;;;;;;;25.73;34.51;96134.91;5102886;27;20054;-73
2023/07/23 09:12:24;;;;;;;4.70;2.17;;;;;;;25.92;34.24;96127.88;5105096;27;20043;-74
2023/07/23 09:14:52;;;;;;;3.70;1.80;;;;;;;26.08;34.45;96123.63;5090621;28;20040;-74
2023/07/23 09:17:20;;;;;;;4.82;2.20;;;;;;;26.31;34.54;96122.81;5106556;27;20051;-75
2023/07/23 09:19:47;;;;;;;4.30;2.40;;;;;;;26.53;32.89;96124.03;5094582;28;20043;-74
2023/07/23 09:22:17;;;;;;;3.00;2.00;;;;;;;26.58;32.45;96119.97;5102169;27;20571;-74
2023/07/23 09:24:43;;;;;;;3.60;2.38;;;;;;;26.54;33.93;96117.22;5098519;27;20052;-73
2023/07/23 09:27:11;;;;;;;3.20;2.17;;;;;;;26.49;31.90;96123.31;5098236;27;20442;-74
2023/07/23 09:29:40;;;;;;;3.70;2.40;;;;;;;26.57;32.50;96119.16;5090820;28;20051;-74
2023/07/23 09:32:22;;;;;;;5.50;2.80;;;;;;;26.78;33.54;96118.75;5087413;28;20131;-73
2023/07/23 09:34:49;;;;;;;4.15;2.05;;;;;;;26.54;32.33;96109.63;5094911;27;20047;-72
2023/07/23 09:37:18;;;;;;;3.38;2.25;;;;;;;26.34;32.76;96108.00;5100831;27;20048;-73
2023/07/23 09:39:44;;;;;;;4.15;2.40;;;;;;;26.12;33.52;96105.63;5095199;27;20044;-73
2023/07/23 09:42:11;;;;;;;3.70;2.63;;;;;;;26.07;34.22;96108.88;5102320;27;20059;-72
2023/07/23 09:44:39;;;;;;;5.35;2.47;;;;;;;25.73;33.00;96112.59;5098869;27;20052;-73
2023/07/23 09:47:06;;;;;;;3.33;2.30;;;;;;;25.90;34.00;96104.41;5106512;27;20087;-73
2023/07/23 09:49:33;;;;;;;5.65;2.70;;;;;;;26.06;33.82;96107.31;5095608;27;20055;-73
2023/07/23 09:52:06;;;;;;;4.13;2.58;;;;;;;26.38;32.83;96103.16;5088311;28;20047;-73
2023/07/23 09:54:35;;;;;;;4.78;2.47;;;;;;;26.53;33.70;96108.06;5086366;28;20043;-73
2023/07/23 09:57:03;;;;;;;3.30;2.08;;;;;;;26.78;32.41;96101.16;5096946;27;20071;-74
2023/07/23 09:59:31;;;;;;;4.57;2.50;;;;;;;27.03;33.55;96103.44;5086225;28;20055;-73
2023/07/23 10:01:57;;;;;;;4.15;2.58;;;;;;;27.22;31.50;96104.69;5086824;28;20044;-73
2023/07/23 10:04:24;;;;;;;5.68;2.90;;;;;;;26.98;31.97;96104.75;5095143;27;20051;-73
2023/07/23 10:06:51;;;;;;;4.22;2.75;;;;;;;26.87;33.07;96098.59;5108281;27;20044;-73
2023/07/23 10:09:19;;;;;;;4.55;2.85;;;;;;;26.83;32.35;96105.47;5109782;27;20059;-73
2023/07/23 10:11:47;;;;;;;4.38;2.60;;;;;;;26.60;32.19;96095.97;5106554;27;20044;-74
2023/07/23 10:14:13;;;;;;;3.90;2.78;;;;;;;26.60;32.54;96095.97;5108528;27;20048;-74
2023/07/23 10:16:43;;;;;;;3.63;2.40;;;;;;;26.59;32.90;96093.59;5106572;27;20414;-73
2023/07/23 10:19:12;;;;;;;4.55;2.90;;;;;;;26.87;31.31;96098.59;5105258;27;20404;-73
2023/07/23 10:21:38;;;;;;;4.82;3.05;;;;;;;26.85;31.01;96089.09;5110496;27;20510;-72
2023/07/23 10:24:06;;;;;;;6.30;2.85;;;;;;;26.79;31.95;96086.78;5095355;27;20059;-73
2023/07/23 10:26:41;;;;;;;3.90;2.72;;;;;;;27.06;32.44;96083.81;5091651;28;20093;-73
2023/07/23 10:29:12;;;;;;;8.27;3.15;;;;;;;27.12;31.35;96081.31;5103906;27;20513;-73
2023/07/23 10:31:39;;;;;;;5.57;2.65;;;;;;;27.16;31.67;96087.63;5098148;28;20048;-71
2023/07/23 10:34:41;;;;;;;4.60;2.75;;;;;;;26.99;31.71;96094.34;5093977;27;20047;-73
2023/07/23 10:37:11;;;;;;;7.15;3.00;;;;;;;27.09;31.89;96082.19;5100318;27;20040;-72
2023/07/23 10:39:39;;;;;;;4.35;2.72;;;;;;;27.31;31.50;96079.72;5089357;28;20071;-73
2023/07/23 10:42:06;;;;;;;5.43;2.95;;;;;;;27.55;30.69;96080.34;5089433;28;20415;-73
2023/07/23 10:44:34;;;;;;;4.55;2.70;;;;;;;27.63;31.21;96076.16;5089520;28;20051;-73
2023/07/23 10:47:02;;;;;;;5.90;2.90;;;;;;;27.74;30.71;96065.53;5094966;28;20040;-73
2023/07/23 10:49:30;;;;;;;5.55;3.00;;;;;;;27.77;30.19;96064.66;5089295;28;20048;-73
2023/07/23 10:52:12;;;;;;;6.60;2.97;;;;;;;27.88;31.48;96057.97;5089103;28;20051;-73
2023/07/23 10:54:39;;;;;;;6.47;3.17;;;;;;;28.12;31.64;96059.34;5088952;28;20051;-72
2023/07/23 10:57:07;;;;;;;5.50;2.97;;;;;;;28.46;30.10;96060.88;5094250;28;20044;-73
2023/07/23 10:59:39;;;;;;;4.43;3.00;;;;;;;28.53;30.94;96057.88;5105840;27;20043;-72
2023/07/23 11:02:06;;;;;;;6.78;3.35;;;;;;;28.59;28.81;96056.88;5088953;28;20051;-73
2023/07/23 11:04:37;;;;;;;6.32;3.30;;;;;;;28.38;28.58;96053.88;5088935;28;20052;-73
2023/07/23 11:07:06;;;;;;;7.68;3.38;;;;;;;28.63;29.42;96051.19;5107983;27;20058;-74
2023/07/23 11:09:35;;;;;;;5.80;3.78;;;;;;;28.42;29.10;96046.19;5109390;27;20052;-74
2023/07/23 11:12:05;;;;;;;5.65;3.40;;;;;;;28.41;29.17;96048.19;5095815;27;20047;-73
2023/07/23 11:14:32;;;;;;;4.78;3.20;;;;;;;28.52;29.43;96045.09;5091003;28;20568;-73
2023/07/23 11:17:04;;;;;;;6.53;4.03;;;;;;;28.31;28.31;96047.22;5091378;28;20507;-73
2023/07/23 11:19:32;;;;;;;7.05;3.50;;;;;;;28.50;29.29;96033.53;5098332;27;20040;-72
2023/07/23 11:22:00;;;;;;;5.63;3.78;;;;;;;28.65;28.09;96036.72;5088550;28;20530;-73
2023/07/23 11:24:29;;;;;;;11.50;4.38;;;;;;;28.67;29.02;96029.44;5088463;28;20510;-73
2023/07/23 11:26:58;;;;;;;6.35;4.00;;;;;;;28.56;27.07;96034.59;5088499;28;20051;-73
2023/07/23 11:29:25;;;;;;;7.75;4.15;;;;;;;28.01;28.63;96033.66;5104514;27;20048;-72
2023/07/23 11:31:51;;;;;;;6.55;4.53;;;;;;;28.19;28.82;96027.56;5093157;28;20051;-72
2023/07/23 11:34:20;;;;;;;8.70;4.90;;;;;;;28.48;28.57;96027.59;5108783;27;20051;-73
2023/07/23 11:36:52;;;;;;;8.15;4.57;;;;;;;28.62;28.14;96030.00;5108943;27;20067;-74